Time;durP1;ratioP1;P1;durP2;ratioP2;P2;SDS_P1;SDS_P2;PMS_P1;PMS_P2;Temp;Humidity;BMP_temperature;BMP_pressure;BME280_temperature;BME280_humidity;BME280_pressure;Samples;Min_cycle;Max_cycle;Signal;HPM_P1;HPM_P2
2023/08/12 00:01:05;;;;;;;3.75;3.17;;;20.00;97.10;;;;;;6150939;23;20391;-67
2023/08/12 00:03:51;;;;;;;5.68;3.67;;;20.10;97.20;;;;;;6150250;23;20006;-67
2023/08/12 00:06:37;;;;;;;8.77;4.32;;;20.00;97.30;;;;;;6151475;23;20005;-68
2023/08/12 00:09:23;;;;;;;4.13;3.35;;;20.00;97.30;;;;;;6150119;23;20335;-67
2023/08/12 00:12:09;;;;;;;9.88;4.25;;;20.00;97.40;;;;;;6151574;23;20335;-67
2023/08/12 00:14:56;;;;;;;5.15;3.42;;;20.00;97.50;;;;;;6150501;23;20001;-67
2023/08/12 00:17:42;;;;;;;5.22;3.92;;;20.00;97.60;;;;;;6150011;23;20109;-67
2023/08/12 00:20:28;;;;;;;6.53;3.70;;;20.00;97.60;;;;;;6150775;23;20185;-67
2023/08/12 00:23:14;;;;;;;5.35;3.55;;;19.90;97.70;;;;;;6151797;23;20005;-67
2023/08/12 00:26:00;;;;;;;4.80;4.07;;;19.90;97.80;;;;;;6152161;23;20321;-67
2023/08/12 00:28:48;;;;;;;6.45;3.50;;;19.80;97.90;;;;;;6152945;23;20465;-67
2023/08/12 00:31:34;;;;;;;6.95;3.45;;;19.80;98.00;;;;;;6149357;23;20049;-67
2023/08/12 00:34:20;;;;;;;5.55;3.38;;;19.80;98.10;;;;;;6151878;23;20473;-67
2023/08/12 00:37:06;;;;;;;4.68;3.33;;;19.80;98.10;;;;;;6152285;23;20067;-68
2023/08/12 00:39:52;;;;;;;5.43;3.42;;;19.80;98.20;;;;;;6150890;23;20049;-67
2023/08/12 00:42:38;;;;;;;5.82;4.15;;;19.80;98.30;;;;;;6151467;23;20467;-67
2023/08/12 00:45:24;;;;;;;4.75;3.25;;;19.80;98.40;;;;;;6129128;23;20236;-68
2023/08/12 00:48:10;;;;;;;4.88;3.78;;;19.80;98.40;;;;;;6150507;23;20005;-67
2023/08/12 00:50:56;;;;;;;6.25;3.67;;;19.70;98.40;;;;;;6128310;23;20347;-67
2023/08/12 00:53:45;;;;;;;8.18;3.22;;;19.70;98.50;;;;;;6129673;23;20005;-67
2023/08/12 00:56:31;;;;;;;5.78;4.05;;;19.70;98.50;;;;;;6149786;23;20009;-67
2023/08/12 00:59:19;;;;;;;4.88;3.80;;;19.70;98.70;;;;;;6149220;23;20018;-68
2023/08/12 01:02:05;;;;;;;7.22;3.72;;;19.70;98.80;;;;;;6148498;23;20001;-67
2023/08/12 01:04:51;;;;;;;6.07;3.85;;;19.70;98.80;;;;;;6149692;23;20005;-67
2023/08/12 01:07:37;;;;;;;4.35;3.40;;;19.70;99.00;;;;;;6148040;23;20006;-68
2023/08/12 01:10:27;;;;;;;4.55;3.55;;;19.60;98.80;;;;;;6150646;23;20113;-68
2023/08/12 01:14:06;;;;;;;4.90;3.40;;;19.60;98.90;;;;;;6149127;23;20010;-68
2023/08/12 01:17:00;;;;;;;5.95;3.72;;;19.60;98.80;;;;;;6011486;23;20073;-67
2023/08/12 01:19:47;;;;;;;4.68;3.58;;;19.60;98.90;;;;;;6148736;23;20013;-67
2023/08/12 01:22:39;;;;;;;5.18;3.25;;;19.60;99.00;;;;;;6129225;23;20016;-68
2023/08/12 01:25:25;;;;;;;4.15;3.30;;;19.50;98.90;;;;;;6149286;23;20334;-68
2023/08/12 01:28:11;;;;;;;4.38;3.38;;;19.50;99.00;;;;;;6152072;23;20435;-68
2023/08/12 01:31:18;;;;;;;5.32;3.63;;;19.50;99.10;;;;;;6148524;23;20006;-68
2023/08/12 01:34:14;;;;;;;4.28;3.35;;;19.50;99.20;;;;;;6150707;23;20006;-68
2023/08/12 01:37:03;;;;;;;6.47;3.90;;;19.50;99.20;;;;;;6147222;23;20013;-68
2023/08/12 01:39:52;;;;;;;6.38;3.55;;;19.50;99.20;;;;;;6148261;23;20466;-68
2023/08/12 01:42:40;;;;;;;4.57;3.40;;;19.40;99.20;;;;;;6149372;23;20064;-68
2023/08/12 01:45:26;;;;;;;4.53;3.33;;;19.40;99.20;;;;;;6148105;23;20045;-68
2023/08/12 01:48:12;;;;;;;8.68;4.28;;;19.40;99.30;;;;;;6151870;23;20002;-67
2023/08/12 01:50:58;;;;;;;5.53;3.70;;;19.40;99.40;;;;;;6150262;23;20013;-66
2023/08/12 01:53:44;;;;;;;7.35;3.60;;;19.30;99.40;;;;;;6150023;23;20005;-67
2023/08/12 01:56:30;;;;;;;4.03;3.35;;;19.30;99.50;;;;;;6149631;23;20012;-66
2023/08/12 01:59:16;;;;;;;5.57;3.65;;;19.30;99.50;;;;;;6151104;23;20014;-66
2023/08/12 02:02:02;;;;;;;5.55;3.22;;;19.30;99.60;;;;;;6150939;23;20439;-67
2023/08/12 02:04:48;;;;;;;5.28;3.78;;;19.30;99.60;;;;;;6146475;23;20097;-67
2023/08/12 02:07:34;;;;;;;5.03;3.90;;;19.30;99.70;;;;;;6149806;23;20010;-67
2023/08/12 02:10:19;;;;;;;3.92;3.25;;;19.30;99.70;;;;;;6148139;23;20014;-67
2023/08/12 02:13:05;;;;;;;6.50;3.78;;;19.20;99.70;;;;;;6148737;23;20013;-67
2023/08/12 02:15:51;;;;;;;4.97;4.20;;;19.20;99.70;;;;;;6148991;23;20087;-67
2023/08/12 02:18:37;;;;;;;5.15;3.95;;;19.20;99.80;;;;;;6150402;23;20017;-67
2023/08/12 02:21:23;;;;;;;7.18;3.70;;;19.20;99.80;;;;;;6149999;23;20009;-66
2023/08/12 02:24:09;;;;;;;5.35;3.80;;;19.20;99.80;;;;;;6151435;23;20006;-67
2023/08/12 02:26:55;;;;;;;5.03;3.72;;;19.20;99.80;;;;;;6149825;23;20056;-67
2023/08/12 02:29:41;;;;;;;7.63;3.45;;;19.20;99.90;;;;;;6151170;23;20014;-67
2023/08/12 02:32:27;;;;;;;4.72;3.30;;;19.20;99.90;;;;;;6131954;23;20459;-67
2023/08/12 02:35:13;;;;;;;4.30;3.47;;;19.20;99.90;;;;;;6152033;23;20017;-67
2023/08/12 02:37:59;;;;;;;5.88;4.35;;;19.20;99.90;;;;;;6152121;23;20011;-67
2023/08/12 02:40:48;;;;;;;5.68;3.70;;;19.20;99.90;;;;;;6152088;23;20016;-66
2023/08/12 02:43:34;;;;;;;4.68;3.28;;;19.20;99.90;;;;;;6151477;23;20480;-67
2023/08/12 02:46:20;;;;;;;6.13;3.65;;;19.20;99.90;;;;;;6152666;23;20017;-67
2023/08/12 02:49:06;;;;;;;5.95;3.50;;;19.20;99.90;;;;;;6151914;23;20009;-67
2023/08/12 02:51:51;;;;;;;7.72;3.80;;;19.20;99.90;;;;;;6152214;23;20009;-67
2023/08/12 02:54:37;;;;;;;3.97;3.05;;;19.20;99.90;;;;;;6152130;23;20001;-66
2023/08/12 02:57:23;;;;;;;4.25;3.50;;;19.20;99.90;;;;;;6152404;23;20024;-66
2023/08/12 03:00:10;;;;;;;5.82;3.85;;;19.20;99.90;;;;;;6151064;23;20053;-66
2023/08/12 03:02:56;;;;;;;7.18;4.05;;;19.20;99.90;;;;;;6150190;23;20009;-66
2023/08/12 03:05:46;;;;;;;5.80;3.63;;;19.20;99.90;;;;;;6151906;23;20363;-67
2023/08/12 03:08:32;;;;;;;5.32;3.53;;;19.20;99.90;;;;;;6151409;23;20006;-67
2023/08/12 03:11:19;;;;;;;4.43;3.42;;;19.10;99.90;;;;;;6150204;23;20005;-69
2023/08/12 03:14:05;;;;;;;9.27;4.20;;;19.20;99.90;;;;;;6150524;23;20084;-69
2023/08/12 03:16:51;;;;;;;11.20;4.40;;;19.20;99.90;;;;;;6150961;23;20733;-69
2023/08/12 03:19:37;;;;;;;5.07;3.67;;;19.10;99.90;;;;;;6130695;23;20677;-70
2023/08/12 03:22:23;;;;;;;7.07;3.75;;;19.10;99.90;;;;;;6131984;23;20005;-70
2023/08/12 03:25:09;;;;;;;4.63;3.30;;;19.10;99.90;;;;;;6152295;23;20056;-70
2023/08/12 03:27:54;;;;;;;7.20;4.10;;;19.10;99.90;;;;;;6152528;23;20440;-70
2023/08/12 03:30:40;;;;;;;5.88;3.85;;;19.10;99.90;;;;;;6149951;23;20093;-70
2023/08/12 03:33:26;;;;;;;5.13;3.45;;;19.10;99.90;;;;;;6152707;23;20342;-70
2023/08/12 03:36:12;;;;;;;4.78;3.33;;;19.10;99.90;;;;;;6150668;23;20005;-70
2023/08/12 03:38:58;;;;;;;5.30;3.90;;;19.10;99.90;;;;;;6152291;23;20013;-70
2023/08/12 03:41:44;;;;;;;7.18;4.03;;;19.10;99.90;;;;;;6149442;23;20036;-70
2023/08/12 03:44:30;;;;;;;4.60;3.72;;;19.10;99.90;;;;;;6152606;23;20024;-69
2023/08/12 03:47:21;;;;;;;4.78;3.92;;;19.10;99.90;;;;;;6152892;23;20017;-69
2023/08/12 03:50:07;;;;;;;7.57;3.70;;;19.00;99.90;;;;;;6150302;23;20006;-69
2023/08/12 03:52:53;;;;;;;6.00;3.50;;;19.00;99.90;;;;;;6152508;23;20010;-70
2023/08/12 03:55:39;;;;;;;4.55;3.70;;;19.00;99.90;;;;;;6150909;23;20009;-70
2023/08/12 03:58:25;;;;;;;5.65;3.92;;;19.00;99.90;;;;;;6151683;23;20052;-69
2023/08/12 04:01:11;;;;;;;5.35;4.25;;;19.00;99.90;;;;;;6150119;23;20343;-70
2023/08/12 04:03:57;;;;;;;10.73;4.65;;;18.90;99.90;;;;;;6150212;23;20001;-70
2023/08/12 04:06:43;;;;;;;5.00;3.50;;;19.00;99.90;;;;;;6149308;23;20013;-70
2023/08/12 04:09:29;;;;;;;6.10;3.60;;;19.00;99.90;;;;;;6151174;23;20009;-70
2023/08/12 04:12:15;;;;;;;5.25;4.30;;;19.00;99.90;;;;;;6151215;23;20018;-68
2023/08/12 04:15:04;;;;;;;4.35;3.72;;;18.90;99.90;;;;;;6148792;23;20005;-70
2023/08/12 04:17:50;;;;;;;7.88;3.83;;;18.90;99.90;;;;;;6148494;23;20009;-67
2023/08/12 04:20:37;;;;;;;4.75;3.90;;;18.90;99.90;;;;;;6148871;23;20018;-64
2023/08/12 04:23:23;;;;;;;4.25;3.53;;;18.90;99.90;;;;;;6151047;23;20013;-65
2023/08/12 04:26:09;;;;;;;5.38;3.95;;;18.90;99.90;;;;;;6150122;23;20010;-66
2023/08/12 04:28:55;;;;;;;5.72;4.07;;;18.90;99.90;;;;;;6151900;23;20044;-66
2023/08/12 04:31:41;;;;;;;6.03;4.32;;;19.00;99.90;;;;;;6149869;23;20002;-67
2023/08/12 04:34:27;;;;;;;4.80;3.63;;;18.90;99.90;;;;;;6150715;23;20111;-67
2023/08/12 04:37:13;;;;;;;4.93;4.07;;;19.00;99.90;;;;;;6150748;23;20339;-67
2023/08/12 04:39:59;;;;;;;8.20;4.00;;;18.90;99.90;;;;;;6151678;23;20049;-67
2023/08/12 04:42:45;;;;;;;8.18;4.53;;;18.90;99.90;;;;;;6147051;23;20024;-67
2023/08/12 04:45:32;;;;;;;6.22;3.95;;;19.00;99.90;;;;;;6148821;23;20012;-67
2023/08/12 04:48:18;;;;;;;4.57;4.00;;;19.00;99.90;;;;;;6147154;23;20136;-67
2023/08/12 04:51:05;;;;;;;7.28;3.83;;;19.00;99.90;;;;;;6149239;23;20013;-67
2023/08/12 04:53:50;;;;;;;6.22;4.07;;;19.00;99.90;;;;;;6128708;23;20013;-67
2023/08/12 04:56:36;;;;;;;8.88;4.53;;;19.10;99.90;;;;;;6148233;23;20017;-67
2023/08/12 04:59:22;;;;;;;6.70;4.43;;;19.10;99.90;;;;;;6129176;23;20020;-66
2023/08/12 05:02:08;;;;;;;6.28;4.40;;;19.20;99.90;;;;;;6149683;23;20037;-67
2023/08/12 05:04:54;;;;;;;6.55;4.22;;;19.20;99.90;;;;;;6149724;23;20035;-67
2023/08/12 05:07:40;;;;;;;8.70;4.15;;;19.30;99.90;;;;;;6151573;23;20006;-67
2023/08/12 05:10:26;;;;;;;5.45;3.53;;;19.30;99.90;;;;;;6150490;23;20340;-67
2023/08/12 05:13:12;;;;;;;4.65;3.28;;;19.40;99.90;;;;;;6150981;23;20032;-67
2023/08/12 05:15:58;;;;;;;6.38;3.95;;;19.50;99.90;;;;;;6150661;23;20043;-67
2023/08/12 05:18:44;;;;;;;4.93;3.63;;;19.50;99.90;;;;;;6150586;23;20013;-67
2023/08/12 05:21:30;;;;;;;4.20;3.45;;;19.70;99.90;;;;;;6151148;23;20458;-67
2023/08/12 05:24:16;;;;;;;4.60;3.47;;;19.70;99.90;;;;;;6151605;23;20120;-68
2023/08/12 05:27:02;;;;;;;6.93;3.80;;;19.90;99.90;;;;;;6150530;23;20032;-69
2023/08/12 05:29:48;;;;;;;6.43;3.58;;;20.00;99.90;;;;;;6150683;23;20005;-69
2023/08/12 05:32:34;;;;;;;6.03;3.33;;;20.20;99.90;;;;;;6150261;23;20013;-69
2023/08/12 05:35:19;;;;;;;4.32;3.33;;;20.30;99.90;;;;;;6149147;23;20056;-68
2023/08/12 05:38:05;;;;;;;3.47;2.92;;;20.50;99.80;;;;;;6127622;23;20002;-68
2023/08/12 05:40:51;;;;;;;4.85;3.22;;;20.60;99.40;;;;;;6149512;23;20096;-69
2023/08/12 05:43:37;;;;;;;4.68;3.42;;;20.70;99.10;;;;;;6149164;23;20025;-70
2023/08/12 05:46:23;;;;;;;3.58;2.85;;;20.90;99.00;;;;;;6150458;23;20014;-70
2023/08/12 05:49:09;;;;;;;5.47;3.63;;;21.00;98.80;;;;;;6128181;23;20471;-78
2023/08/12 05:51:55;;;;;;;4.35;3.17;;;21.10;98.90;;;;;;6149310;23;20005;-79
2023/08/12 05:54:41;;;;;;;3.55;2.70;;;21.20;98.70;;;;;;6149222;23;20009;-79
2023/08/12 05:57:27;;;;;;;6.38;3.45;;;21.30;98.30;;;;;;6151301;23;20033;-79
2023/08/12 06:00:13;;;;;;;3.58;2.85;;;21.40;98.40;;;;;;6148321;23;20025;-78
2023/08/12 06:02:59;;;;;;;3.72;2.60;;;21.40;98.30;;;;;;6149823;23;20053;-79
2023/08/12 06:05:46;;;;;;;4.47;2.92;;;21.50;98.10;;;;;;6150388;23;20041;-79
2023/08/12 06:08:32;;;;;;;4.50;3.10;;;21.50;98.10;;;;;;6133898;23;20068;-77
2023/08/12 06:11:18;;;;;;;4.07;2.50;;;21.60;98.00;;;;;;6149601;23;20432;-77
2023/08/12 06:14:04;;;;;;;4.10;2.80;;;21.70;98.10;;;;;;6152307;23;20432;-78
2023/08/12 06:16:50;;;;;;;4.30;2.83;;;21.80;97.90;;;;;;6153282;23;20010;-77
2023/08/12 06:19:36;;;;;;;4.15;3.10;;;21.90;97.90;;;;;;6152465;23;20068;-77
2023/08/12 06:22:22;;;;;;;5.97;2.97;;;21.90;97.70;;;;;;6152511;23;20012;-78
2023/08/12 06:25:08;;;;;;;6.25;2.90;;;22.00;97.50;;;;;;6152115;23;20041;-78
2023/08/12 06:27:54;;;;;;;6.05;3.42;;;22.10;97.40;;;;;;6152231;23;20321;-76
2023/08/12 06:30:40;;;;;;;5.50;3.28;;;22.10;97.30;;;;;;6152274;23;20096;-75
2023/08/12 06:33:26;;;;;;;4.72;2.85;;;22.20;97.30;;;;;;6152477;23;20006;-76
2023/08/12 06:36:12;;;;;;;4.93;2.83;;;22.30;97.10;;;;;;6152412;23;20005;-76
2023/08/12 06:38:58;;;;;;;3.63;2.75;;;22.30;97.10;;;;;;6129518;23;20072;-75
2023/08/12 06:41:43;;;;;;;6.18;3.38;;;22.40;97.10;;;;;;6151160;23;20016;-76
2023/08/12 06:44:29;;;;;;;7.93;3.10;;;22.50;97.00;;;;;;6152545;23;20009;-75
2023/08/12 06:47:15;;;;;;;3.58;2.67;;;22.50;96.90;;;;;;6150249;23;20018;-76
2023/08/12 06:50:01;;;;;;;4.57;2.55;;;22.60;96.80;;;;;;6151556;23;20017;-75
2023/08/12 06:52:47;;;;;;;4.88;3.45;;;22.60;96.50;;;;;;6151474;23;20002;-74
2023/08/12 06:55:33;;;;;;;4.25;2.53;;;22.70;96.60;;;;;;6126439;23;20100;-74
2023/08/12 06:58:19;;;;;;;5.07;2.60;;;22.80;96.60;;;;;;6152527;23;20016;-74
2023/08/12 07:01:05;;;;;;;4.88;2.50;;;22.80;96.50;;;;;;6150127;23;20010;-74
2023/08/12 07:03:51;;;;;;;5.40;2.88;;;22.90;96.50;;;;;;6152606;23;20006;-74
2023/08/12 07:06:37;;;;;;;4.53;2.85;;;22.90;96.40;;;;;;6151376;23;20010;-72
2023/08/12 07:09:23;;;;;;;3.83;2.40;;;23.00;96.30;;;;;;6149933;23;20040;-70
2023/08/12 07:12:09;;;;;;;4.47;3.05;;;23.10;96.40;;;;;;6149216;23;20016;-69
2023/08/12 07:14:55;;;;;;;4.45;2.70;;;23.20;96.50;;;;;;6150365;23;20006;-72
2023/08/12 07:17:41;;;;;;;3.72;2.90;;;23.30;95.90;;;;;;6148089;23;20020;-70
2023/08/12 07:20:27;;;;;;;5.40;3.13;;;23.30;95.90;;;;;;6148832;23;20021;-77
2023/08/12 07:23:13;;;;;;;8.75;2.88;;;23.40;95.80;;;;;;6150685;23;20418;-72
2023/08/12 07:25:59;;;;;;;6.07;2.75;;;23.40;95.90;;;;;;6150301;23;20005;-72
2023/08/12 07:28:45;;;;;;;5.20;3.13;;;23.50;95.70;;;;;;6150713;23;20024;-73
2023/08/12 07:31:31;;;;;;;5.03;3.08;;;23.70;95.70;;;;;;6148146;23;20092;-75
2023/08/12 07:34:17;;;;;;;4.10;3.05;;;23.80;95.60;;;;;;6153030;23;20011;-73
2023/08/12 07:37:03;;;;;;;3.55;2.70;;;23.90;95.80;;;;;;6156236;23;20686;-69
2023/08/12 07:39:49;;;;;;;7.28;3.65;;;24.00;95.70;;;;;;6150927;23;20458;-70
2023/08/12 07:42:34;;;;;;;5.95;3.05;;;24.10;95.60;;;;;;6147168;23;20383;-70
2023/08/12 07:45:22;;;;;;;6.07;3.03;;;24.20;95.70;;;;;;6150860;23;20375;-70
2023/08/12 07:48:07;;;;;;;4.65;3.00;;;24.30;95.30;;;;;;6148405;23;20321;-75
2023/08/12 07:50:57;;;;;;;17.08;2.92;;;24.40;95.30;;;;;;6150561;23;20088;-70
2023/08/12 07:53:43;;;;;;;5.13;2.72;;;24.50;95.10;;;;;;6148162;23;20010;-70
2023/08/12 07:56:29;;;;;;;5.18;3.13;;;24.60;95.40;;;;;;6150238;23;20013;-72
2023/08/12 07:59:16;;;;;;;3.20;2.42;;;24.70;94.80;;;;;;6151542;23;20052;-74
2023/08/12 08:02:03;;;;;;;3.95;2.60;;;24.80;95.00;;;;;;6150261;23;20236;-74
2023/08/12 08:04:49;;;;;;;4.63;3.13;;;24.90;94.60;;;;;;6147694;23;20408;-74
2023/08/12 08:07:35;;;;;;;4.18;2.72;;;25.00;94.70;;;;;;6149826;23;20008;-73
2023/08/12 08:10:21;;;;;;;5.57;3.20;;;25.00;94.60;;;;;;6149663;23;20009;-74
2023/08/12 08:13:07;;;;;;;7.68;3.10;;;25.10;94.60;;;;;;6150911;23;20012;-73
2023/08/12 08:15:53;;;;;;;3.95;2.80;;;25.20;94.60;;;;;;6128635;23;20109;-74
2023/08/12 08:18:39;;;;;;;5.80;3.03;;;25.20;94.50;;;;;;6147956;23;20020;-73
2023/08/12 08:21:26;;;;;;;4.70;2.67;;;25.30;94.10;;;;;;6149995;23;20144;-74
2023/08/12 08:24:12;;;;;;;4.25;2.70;;;25.30;94.30;;;;;;6148666;23;20020;-74
2023/08/12 08:26:58;;;;;;;5.07;3.10;;;25.30;94.20;;;;;;6149487;23;20024;-74
2023/08/12 08:29:44;;;;;;;5.80;3.55;;;25.30;94.20;;;;;;6147657;23;20036;-75
2023/08/12 08:32:30;;;;;;;5.47;3.10;;;25.30;94.00;;;;;;6149891;23;20426;-75
2023/08/12 08:35:16;;;;;;;5.20;2.85;;;25.30;94.50;;;;;;6150119;23;20009;-75
2023/08/12 08:38:02;;;;;;;3.63;2.75;;;25.30;94.30;;;;;;6149760;23;20013;-75
2023/08/12 08:40:51;;;;;;;3.95;2.90;;;25.30;94.20;;;;;;6145553;23;20471;-74
2023/08/12 08:43:45;;;;;;;4.38;3.72;;;25.20;94.30;;;;;;6149708;23;20029;-74
2023/08/12 08:46:31;;;;;;;3.30;2.60;;;25.20;94.00;;;;;;6147134;23;20029;-75
2023/08/12 08:49:18;;;;;;;16.95;3.53;;;25.10;94.10;;;;;;6151547;23;20017;-74
2023/08/12 08:52:04;;;;;;;5.07;2.92;;;25.10;94.00;;;;;;6148903;23;20016;-74
2023/08/12 08:54:50;;;;;;;5.40;3.20;;;25.00;94.20;;;;;;6150968;23;20097;-74
2023/08/12 08:57:38;;;;;;;6.13;3.25;;;25.00;94.20;;;;;;6149266;23;20036;-74
2023/08/12 09:00:25;;;;;;;6.20;3.15;;;25.00;94.40;;;;;;6150141;23;20029;-74
2023/08/12 09:03:13;;;;;;;4.50;3.10;;;25.00;94.30;;;;;;6150763;23;20005;-74
2023/08/12 09:05:59;;;;;;;3.75;2.90;;;25.00;94.60;;;;;;6146741;23;20460;-74
2023/08/12 09:08:48;;;;;;;4.38;3.20;;;25.00;94.50;;;;;;6149305;23;20044;-75
2023/08/12 09:11:34;;;;;;;7.63;3.30;;;25.00;94.70;;;;;;6148824;23;20474;-76
2023/08/12 09:14:20;;;;;;;4.60;3.45;;;25.00;95.00;;;;;;6149674;23;20005;-76
2023/08/12 09:17:07;;;;;;;5.10;3.30;;;25.00;95.00;;;;;;6150072;23;20040;-75
2023/08/12 09:19:53;;;;;;;5.47;2.95;;;25.10;95.00;;;;;;6148988;23;20055;-76
2023/08/12 09:22:41;;;;;;;5.43;2.75;;;25.10;94.70;;;;;;6149396;23;20002;-76
2023/08/12 09:25:29;;;;;;;5.90;3.05;;;25.10;95.00;;;;;;6130396;23;20016;-76
2023/08/12 09:28:15;;;;;;;8.55;3.33;;;25.20;95.20;;;;;;6148182;23;20033;-81
2023/08/12 09:31:01;;;;;;;5.45;3.67;;;25.20;95.30;;;;;;6148831;23;20065;-80
2023/08/12 09:33:47;;;;;;;6.80;3.33;;;25.30;95.30;;;;;;6150402;23;20013;-79
2023/08/12 09:36:33;;;;;;;4.72;3.58;;;25.50;95.00;;;;;;6150500;23;20419;-78
2023/08/12 09:39:19;;;;;;;4.22;2.88;;;25.70;94.90;;;;;;6147454;23;20459;-68
2023/08/12 09:42:05;;;;;;;4.18;3.05;;;25.90;95.00;;;;;;6148844;23;20013;-68
2023/08/12 09:44:51;;;;;;;3.60;2.55;;;26.00;95.00;;;;;;6151163;23;20037;-68
2023/08/12 09:47:41;;;;;;;8.18;3.40;;;26.10;94.80;;;;;;6150699;23;20432;-68
2023/08/12 09:50:28;;;;;;;4.60;2.92;;;26.20;94.60;;;;;;6149614;23;20006;-68
2023/08/12 09:53:15;;;;;;;4.63;3.15;;;26.20;94.40;;;;;;6148643;23;20001;-68
2023/08/12 09:56:10;;;;;;;6.22;3.33;;;26.30;94.50;;;;;;6150138;23;20005;-68
2023/08/12 09:58:57;;;;;;;5.20;3.20;;;26.30;94.50;;;;;;6150210;23;20359;-68
2023/08/12 10:01:44;;;;;;;3.33;2.85;;;26.40;94.30;;;;;;6149014;23;20084;-69
2023/08/12 10:04:42;;;;;;;4.85;2.97;;;26.40;94.30;;;;;;6149253;23;20435;-69
2023/08/12 10:07:28;;;;;;;4.70;3.13;;;26.50;94.20;;;;;;6150053;23;20006;-69
2023/08/12 10:10:15;;;;;;;5.82;3.30;;;26.60;94.00;;;;;;6147433;23;20363;-68
2023/08/12 10:13:01;;;;;;;8.05;3.55;;;26.70;93.90;;;;;;6150401;23;20332;-69
2023/08/12 10:15:48;;;;;;;4.82;3.10;;;26.90;94.30;;;;;;6149540;23;20088;-69
2023/08/12 10:18:35;;;;;;;4.32;3.15;;;26.90;94.30;;;;;;6149654;23;20092;-69
2023/08/12 10:21:23;;;;;;;5.43;3.42;;;26.90;94.00;;;;;;6148902;23;20005;-69
2023/08/12 10:24:11;;;;;;;4.30;3.22;;;26.90;94.00;;;;;;6150266;23;20432;-69
2023/08/12 10:26:57;;;;;;;3.75;3.03;;;26.90;93.90;;;;;;6149356;23;20336;-69
2023/08/12 10:29:44;;;;;;;4.45;3.08;;;26.90;94.00;;;;;;6151040;23;20013;-68
2023/08/12 10:32:31;;;;;;;5.68;3.40;;;26.90;93.80;;;;;;6148868;23;20005;-68
2023/08/12 10:35:17;;;;;;;6.05;3.67;;;26.90;93.80;;;;;;6150234;23;20006;-68
2023/08/12 10:38:06;;;;;;;4.93;3.25;;;26.90;93.90;;;;;;6149930;23;20006;-69
2023/08/12 10:40:52;;;;;;;3.47;2.83;;;27.00;93.80;;;;;;6128631;23;20074;-69
2023/08/12 10:44:02;;;;;;;7.38;3.72;;;27.00;93.70;;;;;;6150157;23;20404;-69
2023/08/12 10:46:52;;;;;;;4.22;3.42;;;27.10;93.80;;;;;;6146848;23;20013;-69
2023/08/12 10:49:42;;;;;;;6.05;3.83;;;27.20;93.80;;;;;;6148191;23;20009;-69
2023/08/12 10:52:32;;;;;;;4.70;3.65;;;27.20;93.60;;;;;;6150527;23;20011;-68
2023/08/12 10:55:27;;;;;;;6.22;3.47;;;27.30;93.60;;;;;;6149197;23;20454;-69
2023/08/12 10:58:25;;;;;;;4.40;3.70;;;27.30;93.50;;;;;;6149959;23;20008;-69
2023/08/12 11:01:18;;;;;;;6.25;3.70;;;27.30;93.60;;;;;;6150807;23;20100;-69
2023/08/12 11:04:17;;;;;;;5.00;3.15;;;27.40;93.70;;;;;;6150896;23;20345;-69
2023/08/12 11:07:18;;;;;;;4.63;3.22;;;27.50;93.70;;;;;;6150356;23;20013;-69
2023/08/12 11:10:22;;;;;;;6.45;3.78;;;27.60;93.90;;;;;;6151169;23;20005;-69
2023/08/12 11:13:08;;;;;;;3.97;3.25;;;27.60;93.90;;;;;;6152588;23;20010;-68
2023/08/12 11:16:07;;;;;;;4.45;3.58;;;27.60;93.90;;;;;;6148953;23;20016;-69
2023/08/12 11:18:53;;;;;;;4.28;3.08;;;27.60;93.80;;;;;;6150011;23;20019;-69
2023/08/12 11:21:40;;;;;;;5.72;3.35;;;27.60;93.60;;;;;;6152559;23;20005;-69
2023/08/12 11:24:26;;;;;;;4.60;3.30;;;27.60;93.70;;;;;;6150501;23;20340;-69
2023/08/12 11:27:13;;;;;;;3.90;3.13;;;27.70;94.10;;;;;;6150897;23;20017;-69
2023/08/12 11:29:59;;;;;;;4.10;3.20;;;27.60;93.70;;;;;;6149038;23;20005;-68
2023/08/12 11:32:47;;;;;;;4.90;3.58;;;27.60;93.70;;;;;;6151816;23;20481;-69
2023/08/12 11:35:34;;;;;;;4.53;3.03;;;27.60;93.50;;;;;;6149070;23;20013;-69
2023/08/12 11:38:20;;;;;;;3.70;2.75;;;27.60;93.60;;;;;;6149995;23;20006;-69
2023/08/12 11:41:06;;;;;;;4.03;3.17;;;27.60;93.90;;;;;;6151028;23;20525;-69
2023/08/12 11:43:52;;;;;;;4.45;3.10;;;27.50;93.40;;;;;;6150941;23;20571;-69
2023/08/12 11:46:38;;;;;;;4.63;3.42;;;27.50;93.40;;;;;;6152288;23;20037;-69
2023/08/12 11:49:25;;;;;;;5.00;2.90;;;27.40;93.10;;;;;;6153014;23;20474;-80
2023/08/12 11:52:11;;;;;;;4.38;2.65;;;27.30;93.20;;;;;;6128832;23;20092;-79
2023/08/12 11:54:58;;;;;;;3.50;2.70;;;27.20;93.20;;;;;;6148950;23;20009;-80
2023/08/12 11:57:44;;;;;;;3.60;2.70;;;27.20;93.00;;;;;;6150795;23;20010;-80
2023/08/12 12:00:32;;;;;;;4.72;2.47;;;27.10;92.90;;;;;;6150286;23;20089;-80
2023/08/12 12:03:18;;;;;;;4.70;2.75;;;27.10;93.10;;;;;;6150793;23;20029;-79
2023/08/12 12:06:04;;;;;;;4.30;3.28;;;27.10;93.00;;;;;;6152230;23;20012;-79
2023/08/12 12:08:53;;;;;;;6.22;4.05;;;27.10;93.00;;;;;;6153750;23;20064;-79
2023/08/12 12:11:40;;;;;;;5.38;3.60;;;27.10;93.00;;;;;;6150176;23;20077;-80
2023/08/12 12:14:26;;;;;;;5.35;3.55;;;27.10;92.90;;;;;;6152943;23;20032;-79
2023/08/12 12:17:14;;;;;;;5.47;3.20;;;27.10;92.80;;;;;;6152397;23;20344;-79
2023/08/12 12:20:00;;;;;;;5.45;4.07;;;27.10;92.90;;;;;;6151388;23;20022;-79
2023/08/12 12:22:47;;;;;;;3.85;3.17;;;27.10;93.00;;;;;;6150266;23;20084;-79
2023/08/12 12:25:33;;;;;;;3.92;3.20;;;27.10;93.10;;;;;;6150058;23;20016;-79
2023/08/12 12:28:19;;;;;;;5.60;3.60;;;27.00;93.10;;;;;;6152556;23;20005;-79
2023/08/12 12:31:07;;;;;;;5.25;3.83;;;27.00;93.10;;;;;;6151308;23;20056;-79
2023/08/12 12:33:53;;;;;;;4.53;3.13;;;27.00;93.10;;;;;;6149755;23;20439;-78
2023/08/12 12:36:40;;;;;;;5.57;3.47;;;26.90;93.40;;;;;;6151192;23;20032;-78
2023/08/12 12:39:26;;;;;;;5.72;4.35;;;26.80;93.50;;;;;;6149008;23;20017;-78
2023/08/12 12:42:12;;;;;;;5.35;3.60;;;26.80;93.70;;;;;;6149456;23;20249;-78
2023/08/12 12:44:58;;;;;;;4.47;3.45;;;26.70;93.70;;;;;;6149672;23;20261;-78
2023/08/12 12:47:44;;;;;;;4.30;2.97;;;26.60;93.70;;;;;;6152317;23;20383;-78
2023/08/12 12:50:30;;;;;;;4.15;2.80;;;26.60;93.60;;;;;;6150994;23;20375;-79
2023/08/12 12:53:16;;;;;;;3.53;2.80;;;26.60;93.80;;;;;;6153795;23;20107;-77
2023/08/12 12:56:03;;;;;;;4.05;2.95;;;26.60;93.80;;;;;;6167984;23;20048;-78
2023/08/12 12:58:49;;;;;;;5.05;3.92;;;26.70;93.90;;;;;;6154420;23;20073;-79
2023/08/12 13:01:35;;;;;;;3.92;2.88;;;26.80;94.00;;;;;;6151679;23;20085;-79
2023/08/12 13:04:22;;;;;;;8.32;3.42;;;27.00;94.10;;;;;;6150776;23;20005;-78
2023/08/12 13:07:08;;;;;;;5.10;3.63;;;27.10;94.10;;;;;;6150804;23;20006;-79
2023/08/12 13:09:53;;;;;;;3.95;3.08;;;27.20;94.10;;;;;;6153358;23;20478;-80
2023/08/12 13:12:39;;;;;;;4.82;3.13;;;27.30;94.00;;;;;;6153796;23;20069;-80
2023/08/12 13:15:26;;;;;;;4.95;2.95;;;27.30;94.10;;;;;;6151219;23;20400;-80
2023/08/12 13:18:12;;;;;;;3.85;2.70;;;27.40;93.90;;;;;;6151730;23;20194;-81
2023/08/12 13:20:58;;;;;;;3.72;2.90;;;27.50;93.90;;;;;;6152276;23;20017;-80
2023/08/12 13:23:44;;;;;;;6.22;3.10;;;27.70;93.80;;;;;;6150837;23;20093;-79
2023/08/12 13:26:30;;;;;;;4.82;3.03;;;27.80;93.90;;;;;;6151964;23;20028;-80
2023/08/12 13:29:16;;;;;;;3.85;2.97;;;27.90;93.90;;;;;;6150947;23;20084;-79
2023/08/12 13:32:02;;;;;;;16.25;3.58;;;28.10;93.90;;;;;;6130445;23;20009;-78
2023/08/12 13:34:48;;;;;;;6.18;3.47;;;28.20;93.80;;;;;;6149868;23;20081;-77
2023/08/12 13:37:34;;;;;;;3.63;2.67;;;28.30;93.30;;;;;;6150739;23;20017;-77
2023/08/12 13:40:20;;;;;;;3.42;2.60;;;28.60;93.10;;;;;;6150421;23;20021;-84
2023/08/12 13:43:06;;;;;;;3.70;2.95;;;28.70;93.10;;;;;;6150305;23;20363;-86
2023/08/12 13:45:52;;;;;;;4.63;3.05;;;28.70;92.70;;;;;;6128636;23;20391;-85
2023/08/12 13:48:38;;;;;;;3.90;2.80;;;28.70;92.70;;;;;;6152611;23;20005;-85
2023/08/12 13:51:24;;;;;;;3.30;2.55;;;28.70;92.30;;;;;;6150135;23;20112;-84
2023/08/12 13:54:10;;;;;;;3.50;2.45;;;28.70;92.40;;;;;;6149531;23;20006;-83
2023/08/12 13:56:56;;;;;;;3.90;2.38;;;28.80;92.40;;;;;;6151216;23;20017;-85
2023/08/12 13:59:43;;;;;;;3.85;2.83;;;28.80;92.20;;;;;;6153390;23;20018;-82
2023/08/12 14:02:29;;;;;;;3.20;2.30;;;28.90;92.00;;;;;;6158761;23;20006;-83
2023/08/12 14:05:15;;;;;;;5.50;2.60;;;29.00;91.80;;;;;;6153276;23;20013;-75
2023/08/12 14:08:01;;;;;;;3.38;2.55;;;29.10;91.30;;;;;;6153191;23;20084;-82
2023/08/12 14:10:47;;;;;;;3.95;2.58;;;29.20;91.10;;;;;;6150284;23;20009;-85
2023/08/12 14:13:33;;;;;;;4.75;2.60;;;29.30;91.10;;;;;;6131364;23;20013;-81
2023/08/12 14:16:19;;;;;;;4.88;2.72;;;29.30;90.80;;;;;;6151318;23;20355;-83
2023/08/12 14:19:05;;;;;;;3.30;2.55;;;29.30;90.50;;;;;;6149308;23;20343;-84
2023/08/12 14:21:51;;;;;;;4.78;2.78;;;29.30;90.40;;;;;;6151057;23;20025;-83
2023/08/12 14:24:37;;;;;;;3.38;2.28;;;29.30;90.60;;;;;;6151448;23;20335;-70
2023/08/12 14:27:23;;;;;;;3.65;2.28;;;29.30;90.30;;;;;;6150780;23;20440;-78